Cummaquid, Massachusetts
Current Conditions -  °F | °C
As of 12:56 AM on Wednesday 22 Oct 2014 (Local Time) from KHYA Reporting Station
Scattered Clouds Scattered Clouds  
Wind Chill: 55°   Ceiling: Unl
Heat Index: 55°   Visibility: 10mi
Dew Point: 53°   Wind: 0mph
Humidity: 93%   Direction: NA
Pressure: 29.93"   Gusts: NA
Location:  41.7°N, 70.27°W
Report Text: KHYA 220456Z AUTO 00000KT 10SM SCT005 13/12 A2993 RMK AO2 SLP135 T01280117 401670078
Loading
Personal Weather Stations






























Interactive Weather Map
Tropical Storm Tracking
New forecast layout! Learn more

10-Day Weather Forecast

Advertisements
Track Severe Weather on mobile